createdAt,value
2022-09-12T00:01:04.000Z,0
2022-09-12T00:02:20.000Z,0
2022-09-12T00:03:36.000Z,0
2022-09-12T00:04:52.000Z,0
2022-09-12T00:07:25.000Z,0
2022-09-12T00:08:41.000Z,0
2022-09-12T00:09:58.000Z,0
2022-09-12T00:11:14.000Z,0
2022-09-12T00:12:30.000Z,0
2022-09-12T00:13:46.000Z,0
2022-09-12T00:15:03.000Z,0
2022-09-12T00:16:19.000Z,0
2022-09-12T00:17:34.000Z,0
2022-09-12T00:18:51.000Z,0
2022-09-12T00:20:07.000Z,0
2022-09-12T00:21:23.000Z,0
2022-09-12T00:22:39.000Z,0
2022-09-12T00:23:56.000Z,0
2022-09-12T00:25:12.000Z,0
2022-09-12T00:26:28.000Z,0
2022-09-12T00:27:44.000Z,0
2022-09-12T00:29:00.000Z,0
2022-09-12T00:30:16.000Z,0
2022-09-12T00:31:31.000Z,0
2022-09-12T00:32:48.000Z,0
2022-09-12T00:34:04.000Z,0
2022-09-12T00:35:20.000Z,0
2022-09-12T00:36:37.000Z,0
2022-09-12T00:37:53.000Z,0
2022-09-12T00:39:09.000Z,0
2022-09-12T00:40:25.000Z,0
2022-09-12T00:41:42.000Z,0
2022-09-12T00:42:58.000Z,0
2022-09-12T00:45:31.000Z,0
2022-09-12T00:46:47.000Z,0
2022-09-12T00:48:02.000Z,0
2022-09-12T00:49:19.000Z,0
2022-09-12T00:50:35.000Z,0
2022-09-12T00:51:51.000Z,0
2022-09-12T00:53:07.000Z,0
2022-09-12T00:54:24.000Z,0
2022-09-12T00:55:40.000Z,0
2022-09-12T00:58:13.000Z,0
2022-09-12T00:59:29.000Z,0
2022-09-12T01:00:45.000Z,0
2022-09-12T01:02:01.000Z,0
2022-09-12T01:03:18.000Z,0
2022-09-12T01:04:33.000Z,0
2022-09-12T01:05:49.000Z,0
2022-09-12T01:07:06.000Z,0
2022-09-12T01:08:22.000Z,0
2022-09-12T01:09:38.000Z,0
2022-09-12T01:10:54.000Z,0
2022-09-12T01:12:11.000Z,0
2022-09-12T01:13:27.000Z,0
2022-09-12T01:14:43.000Z,0
2022-09-12T01:16:00.000Z,0
2022-09-12T01:17:16.000Z,0
2022-09-12T01:18:32.000Z,0
2022-09-12T01:19:48.000Z,0
2022-09-12T01:21:04.000Z,0
2022-09-12T01:22:20.000Z,0
2022-09-12T01:23:36.000Z,0
2022-09-12T01:24:53.000Z,0
2022-09-12T01:26:09.000Z,0
2022-09-12T01:27:25.000Z,0
2022-09-12T01:28:41.000Z,0
2022-09-12T01:29:58.000Z,0
2022-09-12T01:31:14.000Z,0
2022-09-12T01:32:30.000Z,0
2022-09-12T01:33:47.000Z,0
2022-09-12T01:36:19.000Z,0
2022-09-12T01:37:34.000Z,0
2022-09-12T01:38:51.000Z,0
2022-09-12T01:40:07.000Z,0
2022-09-12T01:41:23.000Z,0
2022-09-12T01:42:40.000Z,0
2022-09-12T01:43:56.000Z,0
2022-09-12T01:45:12.000Z,0
2022-09-12T01:46:28.000Z,0
2022-09-12T01:49:01.000Z,0
2022-09-12T01:50:17.000Z,0
2022-09-12T01:51:34.000Z,0
2022-09-12T01:52:50.000Z,0
2022-09-12T01:54:05.000Z,0
2022-09-12T01:55:22.000Z,0
2022-09-12T01:56:38.000Z,0
2022-09-12T01:57:54.000Z,0
2022-09-12T01:59:10.000Z,0
2022-09-12T02:00:27.000Z,0
2022-09-12T02:01:43.000Z,0
2022-09-12T02:02:59.000Z,0
2022-09-12T02:04:16.000Z,0
2022-09-12T02:05:32.000Z,0
2022-09-12T02:06:48.000Z,0
2022-09-12T02:08:04.000Z,0
2022-09-12T02:09:21.000Z,0
2022-09-12T02:10:36.000Z,0
2022-09-12T02:11:52.000Z,0
2022-09-12T02:13:09.000Z,0
2022-09-12T02:14:25.000Z,0
2022-09-12T02:15:41.000Z,0
2022-09-12T02:16:57.000Z,0
2022-09-12T02:18:14.000Z,0
2022-09-12T02:19:30.000Z,0
2022-09-12T02:20:46.000Z,0
2022-09-12T02:22:03.000Z,0
2022-09-12T02:23:19.000Z,0
2022-09-12T02:24:35.000Z,0
2022-09-12T02:25:51.000Z,0
2022-09-12T02:27:07.000Z,0
2022-09-12T02:28:23.000Z,0
2022-09-12T02:29:39.000Z,0
2022-09-12T02:30:56.000Z,0
2022-09-12T02:32:12.000Z,0
2022-09-12T02:33:28.000Z,0
2022-09-12T02:34:44.000Z,0
2022-09-12T02:36:01.000Z,0
2022-09-12T02:37:17.000Z,0
2022-09-12T02:39:50.000Z,0
2022-09-12T02:41:06.000Z,0
2022-09-12T02:42:22.000Z,0
2022-09-12T02:43:37.000Z,0
2022-09-12T02:44:54.000Z,0
2022-09-12T02:46:10.000Z,0
2022-09-12T02:48:43.000Z,0
2022-09-12T02:49:59.000Z,0
2022-09-12T02:51:15.000Z,0
2022-09-12T02:52:31.000Z,0
2022-09-12T02:53:48.000Z,0
2022-09-12T02:55:04.000Z,0
2022-09-12T02:56:20.000Z,0
2022-09-12T02:57:37.000Z,0
2022-09-12T02:58:53.000Z,0
2022-09-12T03:00:08.000Z,0
2022-09-12T03:01:25.000Z,0
2022-09-12T03:02:41.000Z,0
2022-09-12T03:03:57.000Z,0
2022-09-12T03:05:13.000Z,0
2022-09-12T03:06:30.000Z,0
2022-09-12T03:07:46.000Z,0
2022-09-12T03:09:02.000Z,0
2022-09-12T03:10:19.000Z,0
2022-09-12T03:11:35.000Z,0
2022-09-12T03:12:51.000Z,0
2022-09-12T03:14:07.000Z,0
2022-09-12T03:15:24.000Z,0
2022-09-12T03:16:39.000Z,0
2022-09-12T03:17:55.000Z,0
2022-09-12T03:19:12.000Z,0
2022-09-12T03:20:28.000Z,0
2022-09-12T03:21:44.000Z,0
2022-09-12T03:23:00.000Z,0
2022-09-12T03:24:17.000Z,0
2022-09-12T03:25:33.000Z,0
2022-09-12T03:26:49.000Z,0
2022-09-12T03:28:06.000Z,0
2022-09-12T03:30:38.000Z,0
2022-09-12T03:31:54.000Z,0
2022-09-12T03:33:10.000Z,0
2022-09-12T03:34:26.000Z,0
2022-09-12T03:35:42.000Z,0
2022-09-12T03:36:59.000Z,0
2022-09-12T03:38:15.000Z,0
2022-09-12T03:39:31.000Z,0
2022-09-12T03:40:47.000Z,0
2022-09-12T03:43:20.000Z,0
2022-09-12T03:44:36.000Z,0
2022-09-12T03:45:53.000Z,0
2022-09-12T03:47:09.000Z,0
2022-09-12T03:48:25.000Z,0
2022-09-12T03:49:40.000Z,0
2022-09-12T03:50:57.000Z,0
2022-09-12T03:52:13.000Z,0
2022-09-12T03:53:29.000Z,0
2022-09-12T03:54:46.000Z,0
2022-09-12T03:56:02.000Z,0
2022-09-12T03:57:18.000Z,0
2022-09-12T03:58:34.000Z,0
2022-09-12T03:59:51.000Z,0
2022-09-12T04:02:23.000Z,0
2022-09-12T04:03:40.000Z,0
2022-09-12T04:04:56.000Z,0
2022-09-12T04:07:28.000Z,0
2022-09-12T04:08:43.000Z,0
2022-09-12T04:09:58.000Z,0
2022-09-12T04:11:14.000Z,0
2022-09-12T04:12:31.000Z,0
2022-09-12T04:13:47.000Z,0
2022-09-12T04:15:03.000Z,0
2022-09-12T04:16:20.000Z,0
2022-09-12T04:17:36.000Z,0
2022-09-12T04:18:52.000Z,0
2022-09-12T04:21:25.000Z,0
2022-09-12T04:22:41.000Z,1
2022-09-12T04:23:57.000Z,0
2022-09-12T04:25:14.000Z,0
2022-09-12T04:26:29.000Z,1
2022-09-12T04:27:45.000Z,1
2022-09-12T04:29:01.000Z,0
2022-09-12T04:30:18.000Z,0
2022-09-12T04:31:34.000Z,0
2022-09-12T04:32:50.000Z,3
2022-09-12T04:34:06.000Z,2
2022-09-12T04:35:23.000Z,1
2022-09-12T04:36:38.000Z,1
2022-09-12T04:37:53.000Z,6
2022-09-12T04:39:09.000Z,2
2022-09-12T04:40:26.000Z,3
2022-09-12T04:41:42.000Z,4
2022-09-12T04:42:58.000Z,4
2022-09-12T04:44:14.000Z,5
2022-09-12T04:45:30.000Z,7
2022-09-12T04:46:47.000Z,8
2022-09-12T04:48:03.000Z,10
2022-09-12T04:49:19.000Z,12
2022-09-12T04:50:35.000Z,16
2022-09-12T04:53:08.000Z,30
2022-09-12T04:54:23.000Z,40
2022-09-12T04:55:39.000Z,51
2022-09-12T04:56:56.000Z,59
2022-09-12T04:58:12.000Z,69
2022-09-12T04:59:28.000Z,73
2022-09-12T05:00:44.000Z,89
2022-09-12T05:02:01.000Z,97
2022-09-12T05:03:17.000Z,113
2022-09-12T05:04:33.000Z,122
2022-09-12T05:05:49.000Z,136
2022-09-12T05:07:05.000Z,146
2022-09-12T05:08:22.000Z,158
2022-09-12T05:09:38.000Z,172
2022-09-12T05:10:53.000Z,187
2022-09-12T05:12:09.000Z,206
2022-09-12T05:13:26.000Z,225
2022-09-12T05:14:42.000Z,246
2022-09-12T05:15:58.000Z,266
2022-09-12T05:17:14.000Z,285
2022-09-12T05:18:31.000Z,312
2022-09-12T05:19:47.000Z,333
2022-09-12T05:21:03.000Z,354
2022-09-12T05:23:36.000Z,402
2022-09-12T05:24:52.000Z,437
2022-09-12T05:26:08.000Z,462
2022-09-12T05:27:23.000Z,478
2022-09-12T05:28:39.000Z,505
2022-09-12T05:29:56.000Z,533
2022-09-12T05:31:12.000Z,566
2022-09-12T05:32:28.000Z,588
2022-09-12T05:35:01.000Z,636
2022-09-12T05:36:17.000Z,671
2022-09-12T05:37:33.000Z,695
2022-09-12T05:38:49.000Z,735
2022-09-12T05:40:06.000Z,770
2022-09-12T05:41:22.000Z,778
2022-09-12T05:42:38.000Z,797
2022-09-12T05:43:53.000Z,820
2022-09-12T05:45:10.000Z,845
2022-09-12T05:46:26.000Z,882
2022-09-12T05:47:42.000Z,893
2022-09-12T05:50:14.000Z,922
2022-09-12T05:51:31.000Z,963
2022-09-12T05:52:47.000Z,1028
2022-09-12T05:54:03.000Z,1050
2022-09-12T05:55:19.000Z,1081
2022-09-12T05:56:36.000Z,1179
2022-09-12T05:57:52.000Z,1044
2022-09-12T05:59:08.000Z,1107
2022-09-12T06:00:23.000Z,1125
2022-09-12T06:02:56.000Z,893
2022-09-12T06:04:12.000Z,1591
2022-09-12T06:05:28.000Z,1993
2022-09-12T06:06:44.000Z,1691
2022-09-12T06:08:01.000Z,1422
2022-09-12T06:09:17.000Z,1449
2022-09-12T06:10:33.000Z,1496
2022-09-12T06:11:49.000Z,1581
2022-09-12T06:13:06.000Z,1597
2022-09-12T06:15:38.000Z,1961
2022-09-12T06:16:53.000Z,2370
2022-09-12T06:18:09.000Z,1786
2022-09-12T06:19:25.000Z,1680
2022-09-12T06:20:41.000Z,1865
2022-09-12T06:21:57.000Z,1760
2022-09-12T06:23:14.000Z,1796
2022-09-12T06:24:30.000Z,1917
2022-09-12T06:25:46.000Z,1844
2022-09-12T06:28:18.000Z,2234
2022-09-12T06:29:35.000Z,2022
2022-09-12T06:30:51.000Z,2215
2022-09-12T06:33:23.000Z,2195
2022-09-12T06:34:39.000Z,1731
2022-09-12T06:35:54.000Z,1419
2022-09-12T06:37:10.000Z,2901
2022-09-12T06:38:26.000Z,1755
2022-09-12T06:39:43.000Z,8499
2022-09-12T06:40:59.000Z,6271
2022-09-12T06:42:15.000Z,3224
2022-09-12T06:43:31.000Z,2861
2022-09-12T06:44:48.000Z,4322
2022-09-12T06:46:04.000Z,4915
2022-09-12T06:47:20.000Z,3225
2022-09-12T06:48:35.000Z,2802
2022-09-12T06:49:51.000Z,2567
2022-09-12T06:51:07.000Z,2929
2022-09-12T06:52:23.000Z,3245
2022-09-12T06:53:39.000Z,2970
2022-09-12T06:54:55.000Z,2797
2022-09-12T06:56:12.000Z,2969
2022-09-12T06:57:28.000Z,2961
2022-09-12T06:58:44.000Z,2776
2022-09-12T07:00:00.000Z,3176
2022-09-12T07:02:33.000Z,3160
2022-09-12T07:03:49.000Z,3251
2022-09-12T07:06:22.000Z,3442
2022-09-12T07:07:37.000Z,3206
2022-09-12T07:08:52.000Z,3083
2022-09-12T07:10:08.000Z,3034
2022-09-12T07:11:25.000Z,3086
2022-09-12T07:12:41.000Z,3017
2022-09-12T07:13:57.000Z,3005
2022-09-12T07:15:13.000Z,2872
2022-09-12T07:16:29.000Z,2759
2022-09-12T07:17:46.000Z,3011
2022-09-12T07:19:02.000Z,3178
2022-09-12T07:20:18.000Z,3416
2022-09-12T07:21:33.000Z,2906
2022-09-12T07:22:49.000Z,3142
2022-09-12T07:24:05.000Z,3863
2022-09-12T07:25:21.000Z,3266
2022-09-12T07:27:54.000Z,3712
2022-09-12T07:29:10.000Z,3555
2022-09-12T07:30:26.000Z,3083
2022-09-12T07:31:42.000Z,3142
2022-09-12T07:32:59.000Z,3057
2022-09-12T07:34:15.285Z,3687
2022-09-12T07:35:31.000Z,3554
2022-09-12T07:36:47.000Z,3078
2022-09-12T07:38:03.000Z,3150
2022-09-12T07:39:19.000Z,2978
2022-09-12T07:40:35.000Z,2872
2022-09-12T07:41:51.000Z,2823
2022-09-12T07:44:24.000Z,2427
2022-09-12T07:45:40.000Z,2888
2022-09-12T07:46:55.000Z,4085
2022-09-12T07:48:10.000Z,3750
2022-09-12T07:49:27.000Z,3727
2022-09-12T07:50:43.000Z,3203
2022-09-12T07:51:59.000Z,2794
2022-09-12T07:53:15.000Z,2623
2022-09-12T07:54:32.000Z,2686
2022-09-12T07:55:48.000Z,2966
2022-09-12T07:57:04.000Z,2717
2022-09-12T07:58:20.000Z,2574
2022-09-12T08:00:53.000Z,2488
2022-09-12T08:02:09.000Z,2541
2022-09-12T08:03:25.000Z,2493
2022-09-12T08:04:40.000Z,2634
2022-09-12T08:05:57.000Z,2495
2022-09-12T08:07:13.000Z,2477
2022-09-12T08:08:29.000Z,2449
2022-09-12T08:09:45.000Z,2422
2022-09-12T08:11:02.000Z,2592
2022-09-12T08:12:18.000Z,2593
2022-09-12T08:13:34.000Z,2724
2022-09-12T08:14:49.000Z,2776
2022-09-12T08:16:05.000Z,2712
2022-09-12T08:17:21.000Z,2709
2022-09-12T08:18:37.000Z,2711
2022-09-12T08:19:53.000Z,2800
2022-09-12T08:21:10.000Z,2886
2022-09-12T08:22:26.000Z,3038
2022-09-12T08:23:42.000Z,3076
2022-09-12T08:24:58.000Z,3112
2022-09-12T08:26:14.000Z,3165
2022-09-12T08:27:31.000Z,3334
2022-09-12T08:28:47.000Z,3258
2022-09-12T08:30:02.000Z,3401
2022-09-12T08:31:17.000Z,3637
2022-09-12T08:32:34.000Z,3835
2022-09-12T08:36:22.000Z,4161
2022-09-12T08:38:55.000Z,4498
2022-09-12T08:40:11.000Z,4915
2022-09-12T08:41:27.000Z,4663
2022-09-12T08:42:44.000Z,4574
2022-09-12T08:44:00.000Z,4643
2022-09-12T08:45:16.000Z,4481
2022-09-12T08:47:48.000Z,4060
2022-09-12T08:49:05.000Z,4340
2022-09-12T08:50:20.000Z,4708
2022-09-12T08:51:35.000Z,5303
2022-09-12T08:52:51.000Z,5755
2022-09-12T08:54:08.000Z,5917
2022-09-12T08:55:24.000Z,6490
2022-09-12T08:56:40.000Z,6254
2022-09-12T08:57:56.000Z,6747
2022-09-12T08:59:13.000Z,6742
2022-09-12T09:00:29.000Z,6256
2022-09-12T09:01:45.000Z,6484
2022-09-12T09:03:01.000Z,6825
2022-09-12T09:04:18.000Z,6702
2022-09-12T09:05:33.000Z,6242
2022-09-12T09:06:49.000Z,5594
2022-09-12T09:08:05.000Z,6840
2022-09-12T09:09:22.000Z,6695
2022-09-12T09:10:38.000Z,6698
2022-09-12T09:13:10.000Z,7484
2022-09-12T09:14:27.000Z,7049
2022-09-12T09:15:43.000Z,9217
2022-09-12T09:16:59.000Z,10213
2022-09-12T09:18:15.000Z,10354
2022-09-12T09:19:32.000Z,10319
2022-09-12T09:20:48.000Z,9888
2022-09-12T09:22:03.000Z,10193
2022-09-12T09:23:19.000Z,9648
2022-09-12T09:25:52.000Z,9403
2022-09-12T09:27:07.000Z,9081
2022-09-12T09:28:22.000Z,8109
2022-09-12T09:29:38.000Z,7097
2022-09-12T09:30:55.000Z,6904
2022-09-12T09:32:11.000Z,6562
2022-09-12T09:33:27.000Z,6446
2022-09-12T09:34:43.000Z,6926
2022-09-12T09:36:00.000Z,6313
2022-09-12T09:37:16.000Z,6051
2022-09-12T09:38:32.000Z,6130
2022-09-12T09:39:48.000Z,7969
2022-09-12T09:41:04.000Z,9088
2022-09-12T09:42:19.000Z,9172
2022-09-12T09:43:35.000Z,9399
2022-09-12T09:44:51.000Z,10292
2022-09-12T09:46:08.000Z,9866
2022-09-12T09:47:24.000Z,12519
2022-09-12T09:48:40.000Z,9482
2022-09-12T09:51:12.000Z,11499
2022-09-12T09:52:29.000Z,11861
2022-09-12T09:53:45.000Z,13240
2022-09-12T09:55:01.000Z,10504
2022-09-12T09:56:17.000Z,12677
2022-09-12T09:57:34.000Z,13444
2022-09-12T10:00:05.000Z,15374
2022-09-12T10:03:53.000Z,11142
2022-09-12T10:05:08.000Z,14103
2022-09-12T10:06:23.000Z,12930
2022-09-12T10:07:40.000Z,12526
2022-09-12T10:08:56.000Z,10009
2022-09-12T10:10:12.000Z,10268
2022-09-12T10:11:28.000Z,10309
2022-09-12T10:12:44.000Z,9318
2022-09-12T10:14:01.000Z,8546
2022-09-12T10:15:17.000Z,8177
2022-09-12T10:16:33.000Z,9239
2022-09-12T10:17:49.000Z,8629
2022-09-12T10:19:05.000Z,9710
2022-09-12T10:20:20.000Z,13151
2022-09-12T10:21:36.000Z,10334
2022-09-12T10:22:52.000Z,10377
2022-09-12T10:24:09.000Z,10910
2022-09-12T10:25:25.000Z,13200
2022-09-12T10:26:41.000Z,11957
2022-09-12T10:29:14.000Z,12722
2022-09-12T10:30:30.000Z,12691
2022-09-12T10:31:46.000Z,12333
2022-09-12T10:33:02.000Z,11586
2022-09-12T10:34:18.000Z,11491
2022-09-12T10:35:35.000Z,11277
2022-09-12T10:36:50.000Z,11247
2022-09-12T10:38:06.000Z,10948
2022-09-12T10:39:22.000Z,9302
2022-09-12T10:41:55.000Z,11108
2022-09-12T10:43:10.000Z,9947
2022-09-12T10:44:25.000Z,10161
2022-09-12T10:45:42.000Z,10196
2022-09-12T10:46:58.000Z,10482
2022-09-12T10:48:14.000Z,10170
2022-09-12T10:49:30.000Z,10054
2022-09-12T10:50:47.000Z,9847
2022-09-12T10:52:03.000Z,9686
2022-09-12T10:53:19.000Z,9873
2022-09-12T10:54:35.000Z,9827
2022-09-12T10:55:52.000Z,9877
2022-09-12T10:57:08.000Z,9486
2022-09-12T10:58:23.000Z,9279
2022-09-12T10:59:38.000Z,9406
2022-09-12T11:00:54.000Z,9045
2022-09-12T11:02:11.000Z,9257
2022-09-12T11:03:27.000Z,9513
2022-09-12T11:04:43.000Z,9731
2022-09-12T11:05:59.000Z,9389
2022-09-12T11:07:16.000Z,8982
2022-09-12T11:08:32.000Z,9352
2022-09-12T11:09:48.000Z,9633
2022-09-12T11:11:04.000Z,9682
2022-09-12T11:12:21.000Z,9637
2022-09-12T11:13:37.000Z,9219
2022-09-12T11:14:53.000Z,9024
2022-09-12T11:16:08.000Z,9588
2022-09-12T11:17:25.000Z,9173
2022-09-12T11:19:57.000Z,8964
2022-09-12T11:21:13.000Z,9441
2022-09-12T11:22:29.000Z,9233
2022-09-12T11:23:46.000Z,9260
2022-09-12T11:25:02.000Z,8925
2022-09-12T11:26:18.000Z,8408
2022-09-12T11:27:34.000Z,9991
2022-09-12T11:28:51.000Z,6710
2022-09-12T11:30:07.000Z,9466
2022-09-12T11:32:39.000Z,7780
2022-09-12T11:33:55.000Z,5408
2022-09-12T11:35:11.000Z,8594
2022-09-12T11:36:27.000Z,5265
2022-09-12T11:37:43.000Z,7955
2022-09-12T11:39:00.000Z,8408
2022-09-12T11:40:16.000Z,7781
2022-09-12T11:41:32.000Z,7443
2022-09-12T11:42:48.000Z,7292
2022-09-12T11:44:04.000Z,7271
2022-09-12T11:45:21.000Z,7739
2022-09-12T11:46:37.000Z,7245
2022-09-12T11:47:53.000Z,7412
2022-09-12T11:49:09.000Z,7567
2022-09-12T11:50:25.000Z,6082
2022-09-12T11:51:41.000Z,4099
2022-09-12T11:54:13.000Z,7441
2022-09-12T11:56:46.000Z,8019
2022-09-12T11:58:01.000Z,7595
2022-09-12T11:59:16.000Z,7671
2022-09-12T12:01:49.000Z,7857
2022-09-12T12:03:04.000Z,7820
2022-09-12T12:04:20.000Z,7470
2022-09-12T12:05:37.000Z,7942
2022-09-12T12:06:53.000Z,7626
2022-09-12T12:08:09.000Z,7589
2022-09-12T12:09:25.000Z,7388
2022-09-12T12:10:41.000Z,7375
2022-09-12T12:11:58.000Z,7423
2022-09-12T12:13:14.000Z,7666
2022-09-12T12:14:30.000Z,7694
2022-09-12T12:15:46.000Z,7536
2022-09-12T12:17:03.000Z,7201
2022-09-12T12:18:19.000Z,7715
2022-09-12T12:19:34.000Z,7976
2022-09-12T12:20:50.000Z,8972
2022-09-12T12:22:07.000Z,6881
2022-09-12T12:23:23.000Z,6168
2022-09-12T12:24:39.000Z,4011
2022-09-12T12:27:11.000Z,5137
2022-09-12T12:28:26.000Z,2948
2022-09-12T12:29:41.000Z,8624
2022-09-12T12:30:57.000Z,6025
2022-09-12T12:32:13.000Z,6682
2022-09-12T12:33:30.000Z,6330
2022-09-12T12:37:18.000Z,7496
2022-09-12T12:38:35.000Z,8912
2022-09-12T12:39:51.000Z,6460
2022-09-12T12:41:07.000Z,6344
2022-09-12T12:42:23.000Z,6309
2022-09-12T12:43:40.000Z,5671
2022-09-12T12:44:55.000Z,5998
2022-09-12T12:46:11.000Z,4244
2022-09-12T12:48:44.000Z,8319
2022-09-12T12:50:00.000Z,6024
2022-09-12T12:51:16.000Z,5259
2022-09-12T12:52:32.000Z,4116
2022-09-12T12:53:49.000Z,6721
2022-09-12T12:55:05.000Z,4878
2022-09-12T12:56:21.000Z,4762
2022-09-12T12:57:37.000Z,5194
2022-09-12T12:58:54.000Z,5391
2022-09-12T13:00:10.000Z,3996
2022-09-12T13:01:26.000Z,6591
2022-09-12T13:02:41.000Z,6590
2022-09-12T13:03:57.000Z,7533
2022-09-12T13:05:14.000Z,7407
2022-09-12T13:06:30.000Z,6938
2022-09-12T13:07:46.000Z,7656
2022-09-12T13:09:02.000Z,6060
2022-09-12T13:10:19.000Z,4575
2022-09-12T13:11:35.000Z,4942
2022-09-12T13:12:50.000Z,5546
2022-09-12T13:15:22.000Z,4922
2022-09-12T13:16:38.000Z,6510
2022-09-12T13:17:54.000Z,6815
2022-09-12T13:19:10.000Z,7778
2022-09-12T13:20:27.000Z,6452
2022-09-12T13:22:59.000Z,5525
2022-09-12T13:24:15.000Z,5247
2022-09-12T13:26:48.000Z,4252
2022-09-12T13:28:04.000Z,3670
2022-09-12T13:29:20.000Z,3487
2022-09-12T13:30:35.000Z,3466
2022-09-12T13:31:51.000Z,4138
2022-09-12T13:33:07.000Z,4495
2022-09-12T13:34:23.000Z,6477
2022-09-12T13:35:39.000Z,5504
2022-09-12T13:36:56.000Z,6750
2022-09-12T13:38:12.000Z,7006
2022-09-12T13:39:28.000Z,7090
2022-09-12T13:40:44.000Z,6893
2022-09-12T13:42:01.000Z,6758
2022-09-12T13:43:17.000Z,6344
2022-09-12T13:45:48.000Z,7029
2022-09-12T13:47:04.000Z,7567
2022-09-12T13:48:20.000Z,6485
2022-09-12T13:50:52.000Z,5488
2022-09-12T13:52:09.000Z,5372
2022-09-12T13:53:24.000Z,5090
2022-09-12T13:54:40.000Z,5772
2022-09-12T13:55:56.000Z,6015
2022-09-12T13:57:13.000Z,4412
2022-09-12T13:58:29.000Z,5248
2022-09-12T13:59:45.000Z,5543
2022-09-12T14:01:01.000Z,5443
2022-09-12T14:02:18.000Z,5170
2022-09-12T14:04:50.000Z,4823
2022-09-12T14:06:06.000Z,4664
2022-09-12T14:07:22.000Z,4418
2022-09-12T14:08:39.000Z,4278
2022-09-12T14:09:54.000Z,4158
2022-09-12T14:11:10.000Z,4290
2022-09-12T14:12:26.000Z,4055
2022-09-12T14:13:43.000Z,3865
2022-09-12T14:14:59.000Z,4185
2022-09-12T14:16:15.000Z,3885
2022-09-12T14:17:31.000Z,3393
2022-09-12T14:18:48.000Z,4111
2022-09-12T14:20:03.000Z,4105
2022-09-12T14:21:18.000Z,4075
2022-09-12T14:22:34.000Z,3806
2022-09-12T14:23:51.000Z,3760
2022-09-12T14:25:07.000Z,3742
2022-09-12T14:26:23.000Z,3785
2022-09-12T14:28:55.000Z,3318
2022-09-12T14:30:12.000Z,3341
2022-09-12T14:31:28.000Z,3372
2022-09-12T14:32:44.000Z,3377
2022-09-12T14:33:59.000Z,3403
2022-09-12T14:35:15.000Z,3437
2022-09-12T14:36:31.000Z,3539
2022-09-12T14:37:47.000Z,3595
2022-09-12T14:39:03.000Z,3354
2022-09-12T14:40:20.000Z,3261
2022-09-12T14:41:36.000Z,3073
2022-09-12T14:44:08.000Z,3041
2022-09-12T14:45:25.000Z,3051
2022-09-12T14:46:41.000Z,3024
2022-09-12T14:47:57.000Z,2926
2022-09-12T14:49:13.000Z,2872
2022-09-12T14:50:29.000Z,2918
2022-09-12T14:51:45.000Z,2933
2022-09-12T14:53:01.000Z,2895
2022-09-12T14:54:17.000Z,2875
2022-09-12T14:55:33.000Z,2863
2022-09-12T14:56:50.000Z,2763
2022-09-12T14:59:22.000Z,2682
2022-09-12T15:00:37.000Z,2685
2022-09-12T15:03:09.000Z,2726
2022-09-12T15:04:25.000Z,2794
2022-09-12T15:08:14.000Z,2722
2022-09-12T15:09:30.000Z,2789
2022-09-12T15:10:46.000Z,2852
2022-09-12T15:12:02.000Z,2841
2022-09-12T15:13:19.000Z,2862
2022-09-12T15:14:35.000Z,2855
2022-09-12T15:15:51.000Z,2845
2022-09-12T15:17:07.000Z,2860
2022-09-12T15:18:23.000Z,2851
2022-09-12T15:19:38.000Z,2789
2022-09-12T15:20:54.000Z,2700
2022-09-12T15:22:10.000Z,2651
2022-09-12T15:23:27.000Z,2617
2022-09-12T15:24:43.000Z,2607
2022-09-12T15:25:59.000Z,2617
2022-09-12T15:27:15.000Z,2671
2022-09-12T15:29:48.000Z,2690
2022-09-12T15:31:04.000Z,2558
2022-09-12T15:32:20.000Z,2457
2022-09-12T15:34:53.000Z,2421
2022-09-12T15:36:08.000Z,2400
2022-09-12T15:37:24.000Z,2402
2022-09-12T15:38:40.000Z,2327
2022-09-12T15:39:57.000Z,2288
2022-09-12T15:41:13.000Z,2262
2022-09-12T15:42:29.000Z,2292
2022-09-12T15:43:45.000Z,2289
2022-09-12T15:46:18.000Z,2281
2022-09-12T15:47:34.000Z,2200
2022-09-12T15:48:50.000Z,2139
2022-09-12T15:50:07.000Z,2092
2022-09-12T15:51:23.000Z,2046
2022-09-12T15:52:38.000Z,1968
2022-09-12T15:53:54.000Z,1876
2022-09-12T15:55:10.000Z,1799
2022-09-12T15:56:27.000Z,1742
2022-09-12T15:57:43.000Z,1687
2022-09-12T15:58:59.000Z,1645
2022-09-12T16:00:15.000Z,1605
2022-09-12T16:01:31.000Z,1571
2022-09-12T16:02:46.000Z,1545
2022-09-12T16:04:02.000Z,1529
2022-09-12T16:05:18.000Z,1498
2022-09-12T16:06:35.000Z,1463
2022-09-12T16:07:51.000Z,1427
2022-09-12T16:09:07.000Z,1391
2022-09-12T16:10:23.000Z,1343
2022-09-12T16:12:56.000Z,1294
2022-09-12T16:15:28.000Z,1262
2022-09-12T16:18:01.000Z,1240
2022-09-12T16:19:17.000Z,1244
2022-09-12T16:20:32.000Z,1227
2022-09-12T16:21:49.000Z,1206
2022-09-12T16:24:21.000Z,1226
2022-09-12T16:26:54.000Z,1228
2022-09-12T16:28:10.000Z,1245
2022-09-12T16:29:26.000Z,1264
2022-09-12T16:30:42.000Z,1262
2022-09-12T16:31:58.000Z,1268
2022-09-12T16:33:15.000Z,1277
2022-09-12T16:34:31.000Z,1290
2022-09-12T16:37:03.000Z,1274
2022-09-12T16:38:19.000Z,1255
2022-09-12T16:39:35.000Z,1233
2022-09-12T16:40:51.000Z,1249
2022-09-12T16:42:07.000Z,1247
2022-09-12T16:43:24.000Z,1234
2022-09-12T16:44:40.000Z,1207
2022-09-12T16:45:56.000Z,1189
2022-09-12T16:47:12.000Z,1176
2022-09-12T16:48:28.000Z,1156
2022-09-12T16:49:45.000Z,1148
2022-09-12T16:51:01.000Z,1132
2022-09-12T16:52:17.000Z,1120
2022-09-12T16:53:32.000Z,1106
2022-09-12T16:54:48.000Z,1101
2022-09-12T16:56:04.000Z,1086
2022-09-12T16:57:20.000Z,1082
2022-09-12T16:58:36.000Z,1059
2022-09-12T16:59:53.000Z,1033
2022-09-12T17:01:09.000Z,1008
2022-09-12T17:02:25.000Z,974
2022-09-12T17:03:41.000Z,929
2022-09-12T17:04:58.000Z,885
2022-09-12T17:06:14.000Z,861
2022-09-12T17:07:29.000Z,811
2022-09-12T17:08:44.000Z,776
2022-09-12T17:10:01.000Z,739
2022-09-12T17:11:17.000Z,711
2022-09-12T17:12:33.000Z,680
2022-09-12T17:15:05.000Z,593
2022-09-12T17:16:22.000Z,565
2022-09-12T17:17:38.000Z,539
2022-09-12T17:18:54.000Z,529
2022-09-12T17:20:10.000Z,514
2022-09-12T17:21:27.000Z,492
2022-09-12T17:22:43.000Z,477
2022-09-12T17:23:59.000Z,468
2022-09-12T17:25:14.000Z,458
2022-09-12T17:27:47.000Z,418
2022-09-12T17:29:02.000Z,392
2022-09-12T17:30:17.000Z,369
2022-09-12T17:31:34.000Z,346
2022-09-12T17:32:50.000Z,323
2022-09-12T17:34:06.000Z,294
2022-09-12T17:35:22.000Z,268
2022-09-12T17:36:38.000Z,239
2022-09-12T17:37:55.000Z,216
2022-09-12T17:39:11.000Z,191
2022-09-12T17:40:27.000Z,170
2022-09-12T17:41:43.000Z,152
2022-09-12T17:42:59.000Z,135
2022-09-12T17:44:14.000Z,117
2022-09-12T17:45:30.000Z,102
2022-09-12T17:46:46.000Z,90
2022-09-12T17:48:03.000Z,78
2022-09-12T17:49:19.000Z,69
2022-09-12T17:50:35.000Z,60
2022-09-12T17:53:08.000Z,49
2022-09-12T17:54:24.000Z,44
2022-09-12T17:55:40.000Z,39
2022-09-12T17:56:56.000Z,34
2022-09-12T17:58:12.000Z,30
2022-09-12T17:59:29.000Z,29
2022-09-12T18:00:44.000Z,23
2022-09-12T18:02:00.000Z,19
2022-09-12T18:03:16.000Z,18
2022-09-12T18:04:33.000Z,14
2022-09-12T18:05:49.000Z,12
2022-09-12T18:07:05.000Z,9
2022-09-12T18:08:21.000Z,9
2022-09-12T18:09:38.000Z,6
2022-09-12T18:10:54.000Z,5
2022-09-12T18:12:10.000Z,3
2022-09-12T18:13:26.000Z,3
2022-09-12T18:14:43.000Z,2
2022-09-12T18:15:59.000Z,2
2022-09-12T18:18:31.000Z,1
2022-09-12T18:19:47.000Z,0
2022-09-12T18:21:03.000Z,0
2022-09-12T18:22:19.000Z,0
2022-09-12T18:23:35.000Z,0
2022-09-12T18:24:52.000Z,0
2022-09-12T18:26:08.000Z,0
2022-09-12T18:27:24.000Z,0
2022-09-12T18:28:41.000Z,0
2022-09-12T18:29:57.000Z,0
2022-09-12T18:31:13.000Z,0
2022-09-12T18:32:29.000Z,0
2022-09-12T18:35:02.000Z,0
2022-09-12T18:36:17.000Z,0
2022-09-12T18:37:34.000Z,0
2022-09-12T18:38:50.000Z,0
2022-09-12T18:40:06.000Z,0
2022-09-12T18:41:22.000Z,0
2022-09-12T18:43:55.000Z,0
2022-09-12T18:45:10.000Z,0
2022-09-12T18:46:26.000Z,0
2022-09-12T18:47:42.000Z,0
2022-09-12T18:48:58.000Z,0
2022-09-12T18:50:14.000Z,0
2022-09-12T18:51:31.000Z,0
2022-09-12T18:52:47.000Z,0
2022-09-12T18:54:03.000Z,0
2022-09-12T18:56:36.000Z,0
2022-09-12T18:57:52.000Z,0
2022-09-12T18:59:09.000Z,0
2022-09-12T19:00:25.000Z,0
2022-09-12T19:01:41.000Z,0
2022-09-12T19:02:56.000Z,0